Terminal Aerodrome Forecast
Issued by NWS

Home | Current Version | Previous Version | Text Only | Print | Product List | Glossary On
Versions: 1 2 3 4 5 6 7 8 9 10 11 12 13 14
000
FTUS41 KLWX 301141
TAFMTN
TAF
KMTN 301141Z 3012/3112 19007KT P6SM VCSH BKN120
     FM301700 22009KT P6SM VCTS BKN060CB
      TEMPO 3019/3023 4SM -TSRA BKN050CB
     FM310000 VRB05KT P6SM SCT060
     FM310400 32008KT P6SM FEW250=

USA.gov is the U.S. government's official web portal to all federal, state and local government web resources and services.